createdAt,value
2022-11-05T00:00:27.840Z,1010.43
2022-11-05T00:05:25.001Z,1010.46
2022-11-05T00:10:25.093Z,1010.50
2022-11-05T00:15:23.369Z,1010.57
2022-11-05T00:20:23.780Z,1010.61
2022-11-05T00:25:22.924Z,1010.66
2022-11-05T00:30:21.226Z,1010.68
2022-11-05T00:35:20.566Z,1010.74
2022-11-05T00:40:19.887Z,1010.82
2022-11-05T00:45:19.223Z,1010.88
2022-11-05T00:50:19.548Z,1010.92
2022-11-05T00:55:17.902Z,1010.94
2022-11-05T01:00:17.011Z,1010.95
2022-11-05T01:05:16.404Z,1011.00
2022-11-05T01:10:16.560Z,1011.03
2022-11-05T01:15:13.677Z,1011.06
2022-11-05T01:20:16.004Z,1011.08
2022-11-05T01:25:14.427Z,1011.17
2022-11-05T01:30:12.534Z,1011.21
2022-11-05T01:35:11.835Z,1011.28
2022-11-05T01:40:12.056Z,1011.30
2022-11-05T01:45:10.259Z,1011.35
2022-11-05T01:50:09.440Z,1011.37
2022-11-05T01:55:08.632Z,1011.35
2022-11-05T02:00:07.807Z,1011.44
2022-11-05T02:05:06.981Z,1011.41
2022-11-05T02:10:08.179Z,1011.44
2022-11-05T02:15:07.350Z,1011.58
2022-11-05T02:20:04.528Z,1011.54
2022-11-05T02:25:04.823Z,1011.62
2022-11-05T02:30:04.019Z,1011.60
2022-11-05T02:35:02.222Z,1011.64
2022-11-05T02:40:00.486Z,1011.69
2022-11-05T02:45:00.828Z,1011.68
2022-11-05T02:49:59.930Z,1011.70
2022-11-05T02:55:00.154Z,1011.73
2022-11-05T02:59:59.389Z,1011.75
2022-11-05T03:04:57.778Z,1011.83
2022-11-05T03:09:56.762Z,1011.83
2022-11-05T03:14:57.034Z,1011.85
2022-11-05T03:19:55.324Z,1011.86
2022-11-05T03:24:54.549Z,1011.91
2022-11-05T03:29:53.724Z,1011.97
2022-11-05T03:34:52.960Z,1012.11
2022-11-05T03:39:52.295Z,1012.17
2022-11-05T03:44:51.479Z,1012.23
2022-11-05T03:49:51.839Z,1012.25
2022-11-05T03:54:51.003Z,1012.30
2022-11-05T03:59:49.241Z,1012.35
2022-11-05T04:04:48.513Z,1012.42
2022-11-05T04:09:48.749Z,1012.46
2022-11-05T04:14:48.038Z,1012.56
2022-11-05T04:19:46.258Z,1012.58
2022-11-05T04:24:45.360Z,1012.58
2022-11-05T04:29:45.843Z,1012.63
2022-11-05T04:34:44.035Z,1012.65
2022-11-05T04:39:43.281Z,1012.66
2022-11-05T04:44:42.555Z,1012.77
2022-11-05T04:49:42.681Z,1012.73
2022-11-05T04:54:41.808Z,1012.86
2022-11-05T04:59:40.072Z,1012.84
2022-11-05T05:04:39.427Z,1012.98
2022-11-05T05:09:38.555Z,1013.04
2022-11-05T05:14:37.960Z,1013.08
2022-11-05T05:19:37.277Z,1013.12
2022-11-05T05:24:37.354Z,1013.16
2022-11-05T05:29:36.660Z,1013.18
2022-11-05T05:34:35.139Z,1013.31
2022-11-05T05:39:35.353Z,1013.36
2022-11-05T05:44:34.603Z,1013.39
2022-11-05T05:49:34.845Z,1013.40
2022-11-05T05:54:37.083Z,1013.46
2022-11-05T05:59:31.248Z,1013.53
2022-11-05T06:04:31.406Z,1013.59
2022-11-05T06:09:29.765Z,1013.63
2022-11-05T06:14:28.729Z,1013.65
2022-11-05T06:19:28.842Z,1013.69
2022-11-05T06:24:27.117Z,1013.79
2022-11-05T06:29:27.413Z,1013.78
2022-11-05T06:34:26.837Z,1013.90
2022-11-05T06:39:29.390Z,1013.84
2022-11-05T06:44:26.105Z,1013.99
2022-11-05T06:49:24.524Z,1014.01
2022-11-05T06:54:22.694Z,1014.03
2022-11-05T06:59:21.992Z,1014.06
2022-11-05T07:04:21.083Z,1014.19
2022-11-05T07:09:21.391Z,1014.20
2022-11-05T07:14:19.652Z,1014.28
2022-11-05T07:19:18.960Z,1014.37
2022-11-05T07:24:18.258Z,1014.51
2022-11-05T07:29:18.570Z,1014.55
2022-11-05T07:34:16.882Z,1014.64
2022-11-05T07:39:16.309Z,1014.72
2022-11-05T07:44:15.446Z,1014.68
2022-11-05T07:49:13.810Z,1014.73
2022-11-05T07:54:15.066Z,1014.79
2022-11-05T07:59:15.169Z,1014.83
2022-11-05T08:04:12.496Z,1014.86
2022-11-05T08:09:12.805Z,1014.84
2022-11-05T08:14:11.222Z,1014.91
2022-11-05T08:19:11.443Z,1014.97
2022-11-05T08:24:10.526Z,1015.00
2022-11-05T08:29:08.844Z,1015.04
2022-11-05T08:34:07.995Z,1015.05
2022-11-05T08:39:11.641Z,1015.12
2022-11-05T08:44:06.342Z,1015.12
2022-11-05T08:49:06.887Z,1015.19
2022-11-05T08:54:05.661Z,1015.30
2022-11-05T08:59:07.869Z,1015.25
2022-11-05T09:04:02.974Z,1015.34
2022-11-05T09:09:03.292Z,1015.44
2022-11-05T09:14:01.569Z,1015.45
2022-11-05T09:19:01.886Z,1015.52
2022-11-05T09:24:00.210Z,1015.52
2022-11-05T09:29:00.352Z,1015.55
2022-11-05T09:33:59.616Z,1015.57
2022-11-05T09:38:58.712Z,1015.64
2022-11-05T09:43:57.027Z,1015.68
2022-11-05T09:48:56.348Z,1015.65
2022-11-05T09:53:55.662Z,1015.70
2022-11-05T09:58:54.971Z,1015.75
2022-11-05T10:03:54.352Z,1015.76
2022-11-05T10:08:54.519Z,1015.83
2022-11-05T10:13:53.804Z,1015.90
2022-11-05T10:18:51.942Z,1015.89
2022-11-05T10:23:52.268Z,1015.92
2022-11-05T10:28:51.589Z,1016.04
2022-11-05T10:33:50.926Z,1016.04
2022-11-05T10:38:49.340Z,1016.08
2022-11-05T10:43:48.277Z,1016.05
2022-11-05T10:48:47.562Z,1016.08
2022-11-05T10:53:46.818Z,1016.08
2022-11-05T10:58:45.989Z,1016.06
2022-11-05T11:03:46.151Z,1016.06
2022-11-05T11:08:44.548Z,1016.17
2022-11-05T11:13:43.696Z,1016.18
2022-11-05T11:18:44.017Z,1016.12
2022-11-05T11:23:42.340Z,1016.22
2022-11-05T11:28:41.590Z,1016.16
2022-11-05T11:33:42.208Z,1016.09
2022-11-05T11:38:40.984Z,1016.11
2022-11-05T11:43:37.107Z,1016.20
2022-11-05T11:48:38.240Z,1016.16
2022-11-05T11:53:38.571Z,1016.11
2022-11-05T11:58:37.872Z,1016.14
2022-11-05T12:03:36.215Z,1016.20
2022-11-05T12:08:35.331Z,1016.24
2022-11-05T12:13:34.670Z,1016.28
2022-11-05T12:18:34.866Z,1016.27
2022-11-05T12:23:32.970Z,1016.24
2022-11-05T12:28:32.440Z,1016.26
2022-11-05T12:33:31.464Z,1016.31
2022-11-05T12:38:30.865Z,1016.26
2022-11-05T12:43:31.773Z,1016.31
2022-11-05T12:48:34.189Z,1016.35
2022-11-05T12:53:28.208Z,1016.32
2022-11-05T12:58:29.496Z,1016.31
2022-11-05T13:03:27.054Z,1016.28
2022-11-05T13:08:25.987Z,1016.27
2022-11-05T13:13:25.579Z,1016.28
2022-11-05T13:18:24.727Z,1016.31
2022-11-05T13:23:24.965Z,1016.23
2022-11-05T13:28:24.318Z,1016.17
2022-11-05T13:33:22.473Z,1016.18
2022-11-05T13:38:21.623Z,1016.17
2022-11-05T13:43:20.544Z,1016.12
2022-11-05T13:48:19.826Z,1016.14
2022-11-05T13:53:20.091Z,1016.10
2022-11-05T13:58:19.361Z,1016.00
2022-11-05T14:03:17.668Z,1016.08
2022-11-05T14:08:17.293Z,1016.08
2022-11-05T14:13:17.559Z,1016.08
2022-11-05T14:18:16.739Z,1016.13
2022-11-05T14:23:15.512Z,1016.03
2022-11-05T14:28:14.315Z,1016.14
2022-11-05T14:33:14.562Z,1016.14
2022-11-05T14:38:12.756Z,1016.22
2022-11-05T14:43:12.016Z,1016.24
2022-11-05T14:48:12.253Z,1016.30
2022-11-05T14:53:11.561Z,1016.28
2022-11-05T14:58:09.768Z,1016.28
2022-11-05T15:03:08.855Z,1016.36
2022-11-05T15:08:10.156Z,1016.38
2022-11-05T15:13:07.095Z,1016.49
2022-11-05T15:18:06.458Z,1016.46
2022-11-05T15:23:05.420Z,1016.51
2022-11-05T15:28:04.560Z,1016.58
2022-11-05T15:33:04.159Z,1016.62
2022-11-05T15:38:04.152Z,1016.60
2022-11-05T15:43:02.409Z,1016.61
2022-11-05T15:48:01.613Z,1016.68
2022-11-05T15:53:20.734Z,1016.71
2022-11-05T15:58:00.345Z,1016.71
2022-11-05T16:02:59.661Z,1016.79
2022-11-05T16:07:59.504Z,1016.78
2022-11-05T16:12:56.961Z,1016.83
2022-11-05T16:17:57.066Z,1017.09
2022-11-05T16:22:56.331Z,1017.08
2022-11-05T16:27:55.684Z,1017.00
2022-11-05T16:32:54.001Z,1017.10
2022-11-05T16:37:54.316Z,1017.22
2022-11-05T16:42:53.554Z,1017.24
2022-11-05T16:47:52.388Z,1017.33
2022-11-05T16:52:51.933Z,1017.30
2022-11-05T16:57:51.994Z,1017.37
2022-11-05T17:02:50.243Z,1017.41
2022-11-05T17:07:50.641Z,1017.51
2022-11-05T17:12:49.968Z,1017.50
2022-11-05T17:17:47.090Z,1017.49
2022-11-05T17:22:47.400Z,1017.49
2022-11-05T17:27:48.343Z,1017.52
2022-11-05T17:32:45.699Z,1017.54
2022-11-05T17:37:45.147Z,1017.70
2022-11-05T17:42:43.319Z,1017.70
2022-11-05T17:47:45.538Z,1017.80
2022-11-05T17:52:42.968Z,1017.85
2022-11-05T17:57:41.780Z,1017.87
2022-11-05T18:02:42.423Z,1017.77
2022-11-05T18:07:40.597Z,1017.80
2022-11-05T18:12:40.225Z,1017.71
2022-11-05T18:17:39.138Z,1017.69
2022-11-05T18:22:39.307Z,1017.80
2022-11-05T18:27:36.258Z,1017.98
2022-11-05T18:32:37.663Z,1017.83
2022-11-05T18:37:36.609Z,1017.77
2022-11-05T18:42:36.094Z,1017.68
2022-11-05T18:47:34.853Z,1017.67
2022-11-05T18:52:34.986Z,1017.66
2022-11-05T18:57:32.549Z,1017.71
2022-11-05T19:02:31.223Z,1017.76
2022-11-05T19:07:31.258Z,1017.84
2022-11-05T19:12:30.413Z,1017.88
2022-11-05T19:17:29.301Z,1017.88
2022-11-05T19:22:28.961Z,1017.92
2022-11-05T19:27:29.095Z,1017.92
2022-11-05T19:32:28.450Z,1017.86
2022-11-05T19:37:27.634Z,1017.92
2022-11-05T19:42:25.783Z,1017.86
2022-11-05T19:47:25.953Z,1017.92
2022-11-05T19:52:25.720Z,1017.86
2022-11-05T19:57:22.390Z,1017.97
2022-11-05T20:02:22.452Z,1017.98
2022-11-05T20:07:21.793Z,1017.98
2022-11-05T20:12:23.774Z,1018.00
2022-11-05T20:17:19.962Z,1017.97
2022-11-05T20:22:22.525Z,1018.01
2022-11-05T20:27:18.715Z,1018.02
2022-11-05T20:32:19.286Z,1018.00
2022-11-05T20:37:20.018Z,1017.96
2022-11-05T20:42:16.561Z,1018.01
2022-11-05T20:47:15.614Z,1017.98
2022-11-05T20:52:15.477Z,1018.02
2022-11-05T20:57:24.444Z,1017.99
2022-11-05T21:02:14.399Z,1017.91
2022-11-05T21:07:13.294Z,1018.03
2022-11-05T21:12:10.336Z,1018.09
2022-11-05T21:17:09.787Z,1018.09
2022-11-05T21:22:10.207Z,1018.16
2022-11-05T21:27:10.402Z,1018.13
2022-11-05T21:32:09.497Z,1018.25
2022-11-05T21:37:07.820Z,1018.21
2022-11-05T21:42:09.729Z,1018.08
2022-11-05T21:47:06.285Z,1018.13
2022-11-05T21:52:05.262Z,1018.06
2022-11-05T21:57:07.079Z,1017.96
2022-11-05T22:02:04.007Z,1017.97
2022-11-05T22:07:02.847Z,1018.08
2022-11-05T22:12:01.487Z,1017.98
2022-11-05T22:17:01.453Z,1017.82
2022-11-05T22:22:00.738Z,1017.74
2022-11-05T22:27:00.947Z,1017.62
2022-11-05T22:31:59.190Z,1017.65
2022-11-05T22:36:58.537Z,1017.74
2022-11-05T22:41:57.604Z,1017.72
2022-11-05T22:46:57.668Z,1017.72
2022-11-05T22:51:56.868Z,1017.68
2022-11-05T22:56:56.055Z,1017.72
2022-11-05T23:01:54.340Z,1017.73
2022-11-05T23:06:53.593Z,1017.69
2022-11-05T23:11:52.802Z,1017.79
2022-11-05T23:16:55.996Z,1017.79
2022-11-05T23:21:51.754Z,1017.77
2022-11-05T23:26:50.414Z,1017.68
2022-11-05T23:31:49.860Z,1017.70
2022-11-05T23:36:49.885Z,1017.74
2022-11-05T23:41:48.109Z,1017.72
2022-11-05T23:46:46.314Z,1017.60
2022-11-05T23:51:46.476Z,1017.53
2022-11-05T23:56:46.674Z,1017.34
